Главная страница
METAR-TAF:

METAR-TAF

Аэропорты :

Сунан

Пхеньян, Северная Корея

широта: 39-02N, долгота: 125-47E, высота над уровнем моря: 36 м

METAR: отсутствует

Время: 10:03 (01:03 UTC)

Прогноз

Эта сводка был подготовлена 3 часа и 3 минут назад, в 22:00 UTC
Прогноз действительный с 25-го 00 UTC до 25-го 24 UTC
Ветер 6 Узел от юго-западный
Видимость: 2000 м
Сплошная облачность на высоте 700 фута
дымка
изменения
С 25-го 01 UTC до 25-го 03 UTC
Видимость: 6000 м
Отдельные облака на высоте 2700 фута
изменения
С 25-го 14 UTC до 25-го 16 UTC
Видимость: 3000 м
Сплошная облачность на высоте 700 фута
дымка,

TAF: ZKPY 242200Z 2500/2524 22003MPS 2000 BR OVC007 TX23/2506Z TN09/2521Z BECMG 2501/2503 6000 SCT027 BECMG 2514/2516 3000 BR OVC007

Метеонаблюдения и прогнозы для более 4000 аэропортов (сводки METAR и TAF).

Имеющиеся станции представлены на карте желтыми и красными точками.

Чтобы увидеть название станции, наведите на нее мышь.

Затем щелкните, чтобы увидеть метеонаблюдения и метеопрогнозы.

Управление картой: чтобы увеличить масштаб, щелкните зеленые кнопки с черным крестиком; чтобы уменьшить масштаб, щелкните зеленую кнопку с тире; для просмотра соседних карт щелкайте зеленые стрелки.


METAR-TAF: